createdAt,value
2022-11-07T05:17:38.934Z,5.91
2022-11-07T05:20:05.963Z,6.03
2022-11-07T05:22:56.006Z,6.08
2022-11-07T05:25:22.768Z,5.99
2022-11-07T05:27:49.143Z,6.01
2022-11-07T05:30:15.615Z,6.11
2022-11-07T05:32:42.280Z,6.15
2022-11-07T05:35:09.126Z,6.17
2022-11-07T05:37:35.545Z,6.22
2022-11-07T05:40:02.003Z,6.19
2022-11-07T05:42:28.471Z,6.07
2022-11-07T05:44:54.912Z,6.17
2022-11-07T05:47:21.332Z,6.23
2022-11-07T05:49:47.728Z,6.27
2022-11-07T05:52:14.305Z,6.32
2022-11-07T05:54:41.878Z,6.32
2022-11-07T05:57:09.409Z,6.22
2022-11-07T05:59:35.869Z,6.26
2022-11-07T06:02:03.551Z,6.38
2022-11-07T06:04:30.272Z,6.43
2022-11-07T06:06:56.875Z,6.38
2022-11-07T06:09:23.271Z,6.49
2022-11-07T06:11:49.741Z,6.53
2022-11-07T06:14:16.406Z,6.56
2022-11-07T06:16:42.880Z,6.50
2022-11-07T06:19:09.268Z,6.57
2022-11-07T06:21:35.732Z,6.58
2022-11-07T06:24:02.194Z,6.61
2022-11-07T06:26:29.566Z,6.64
2022-11-07T06:28:56.009Z,6.61
2022-11-07T06:31:22.508Z,6.51
2022-11-07T06:33:51.034Z,6.33
2022-11-07T06:36:18.018Z,6.37
2022-11-07T06:38:44.544Z,6.32
2022-11-07T06:41:14.984Z,6.26
2022-11-07T06:43:42.373Z,6.24
2022-11-07T06:46:12.672Z,6.20
2022-11-07T06:48:39.779Z,6.23
2022-11-07T06:51:07.597Z,6.31
2022-11-07T06:53:34.101Z,6.45
2022-11-07T06:56:01.431Z,6.39
2022-11-07T06:58:27.944Z,6.34
2022-11-07T07:00:58.489Z,6.48
2022-11-07T07:03:25.080Z,6.46
2022-11-07T07:05:51.726Z,6.43
2022-11-07T07:08:18.230Z,6.41
2022-11-07T07:10:45.870Z,6.67
2022-11-07T07:13:14.025Z,6.50
2022-11-07T07:15:51.308Z,6.38
2022-11-07T07:18:19.602Z,6.50
2022-11-07T07:20:47.117Z,6.57
2022-11-07T07:23:13.668Z,6.81
2022-11-07T07:25:40.172Z,6.72
2022-11-07T07:28:06.603Z,6.45
2022-11-07T07:30:33.522Z,6.67
2022-11-07T07:33:00.156Z,6.66
2022-11-07T07:35:26.724Z,6.87
2022-11-07T07:37:53.612Z,6.71
2022-11-07T07:40:20.379Z,6.99
2022-11-07T07:42:47.903Z,7.01
2022-11-07T07:45:15.887Z,6.95
2022-11-07T07:47:44.671Z,7.02
2022-11-07T07:50:12.879Z,7.20
2022-11-07T07:52:39.416Z,7.17
2022-11-07T07:55:11.376Z,7.15
2022-11-07T07:57:39.250Z,7.30
2022-11-07T08:00:06.321Z,7.34
2022-11-07T08:02:38.550Z,7.38
2022-11-07T08:05:05.480Z,7.26
2022-11-07T08:07:31.880Z,7.39
2022-11-07T08:10:02.115Z,7.41
2022-11-07T08:12:31.925Z,7.67
2022-11-07T08:14:58.326Z,7.45
2022-11-07T08:17:24.767Z,7.36
2022-11-07T08:19:51.294Z,7.58
2022-11-07T08:22:17.734Z,7.38
2022-11-07T08:24:46.243Z,7.44
2022-11-07T08:27:12.687Z,7.36
2022-11-07T08:29:39.114Z,7.54
2022-11-07T08:32:05.694Z,7.59
2022-11-07T08:34:32.214Z,7.58
2022-11-07T08:36:58.729Z,7.68
2022-11-07T08:39:25.250Z,7.61
2022-11-07T08:41:53.761Z,7.71
2022-11-07T08:44:21.398Z,7.75
2022-11-07T08:46:51.262Z,7.68
2022-11-07T08:49:17.810Z,7.57
2022-11-07T08:51:48.912Z,7.71
2022-11-07T08:54:15.684Z,7.69
2022-11-07T08:56:42.178Z,7.91
2022-11-07T08:59:09.851Z,7.71
2022-11-07T09:01:55.971Z,7.97
2022-11-07T09:04:23.141Z,7.95
2022-11-07T09:06:49.642Z,8.23
2022-11-07T09:09:18.503Z,8.26
2022-11-07T09:11:44.958Z,8.02
2022-11-07T09:14:11.394Z,8.27
2022-11-07T09:16:37.829Z,8.02
2022-11-07T09:19:04.286Z,7.82
2022-11-07T09:21:30.834Z,7.91
2022-11-07T09:23:57.268Z,7.90
2022-11-07T09:26:23.816Z,8.01
2022-11-07T09:28:53.118Z,7.94
2022-11-07T09:31:22.016Z,8.14
2022-11-07T09:33:48.577Z,8.02
2022-11-07T09:36:15.129Z,7.95
2022-11-07T09:38:41.624Z,8.07
2022-11-07T09:41:29.615Z,8.15
2022-11-07T09:44:08.288Z,8.10
2022-11-07T09:47:06.875Z,8.00
2022-11-07T09:49:44.539Z,8.20
2022-11-07T09:52:17.083Z,8.11
2022-11-07T09:54:50.593Z,8.12
2022-11-07T09:57:18.867Z,8.22
2022-11-07T09:59:51.465Z,8.02
2022-11-07T10:02:21.721Z,8.14
2022-11-07T10:04:55.666Z,8.29
2022-11-07T10:07:32.393Z,8.52
2022-11-07T10:10:21.046Z,8.67
2022-11-07T10:12:57.710Z,8.72
2022-11-07T10:15:30.238Z,8.81
2022-11-07T10:18:23.893Z,8.80
2022-11-07T10:21:37.259Z,8.96
2022-11-07T10:24:27.871Z,9.01
2022-11-07T10:26:56.222Z,8.98
2022-11-07T10:29:27.151Z,8.93
2022-11-07T10:32:08.984Z,8.55
2022-11-07T10:34:41.809Z,8.50
2022-11-07T10:37:09.265Z,8.44
2022-11-07T10:39:35.718Z,8.43
2022-11-07T10:42:08.269Z,8.33
2022-11-07T10:44:35.424Z,8.34
2022-11-07T10:47:03.404Z,8.47
2022-11-07T10:49:31.804Z,8.62
2022-11-07T10:52:25.757Z,8.48
2022-11-07T10:54:52.398Z,8.56
2022-11-07T10:57:22.280Z,8.45
2022-11-07T10:59:51.810Z,8.55
2022-11-07T11:02:19.610Z,8.61
2022-11-07T11:04:55.745Z,8.49
2022-11-07T11:07:28.644Z,8.48
2022-11-07T11:09:57.684Z,8.55
2022-11-07T11:12:34.709Z,8.42
2022-11-07T11:15:14.066Z,8.41
2022-11-07T11:17:41.280Z,8.54
2022-11-07T11:20:28.728Z,8.63
2022-11-07T11:22:55.328Z,8.45
2022-11-07T11:25:23.815Z,8.83
2022-11-07T11:28:05.870Z,8.59
2022-11-07T11:30:35.821Z,8.76
2022-11-07T11:33:16.121Z,9.02
2022-11-07T11:36:22.996Z,8.99
2022-11-07T11:38:55.345Z,9.07
2022-11-07T11:41:36.643Z,9.18
2022-11-07T11:44:06.701Z,9.50
2022-11-07T11:46:57.626Z,9.33
2022-11-07T11:49:40.241Z,9.37
2022-11-07T11:52:16.754Z,9.33
2022-11-07T11:54:48.358Z,9.23
2022-11-07T11:57:23.043Z,9.23
2022-11-07T12:00:02.997Z,9.37
2022-11-07T12:02:46.812Z,9.36
2022-11-07T12:05:38.093Z,9.41
2022-11-07T12:08:14.194Z,9.35
2022-11-07T12:11:02.398Z,9.36
2022-11-07T12:13:51.357Z,9.46
2022-11-07T12:16:39.786Z,9.32
2022-11-07T12:19:29.585Z,9.56
2022-11-07T12:22:24.191Z,9.48
2022-11-07T12:25:00.110Z,9.40
2022-11-07T12:27:42.070Z,9.46
2022-11-07T12:30:09.077Z,9.26
2022-11-07T12:33:01.198Z,9.41
2022-11-07T12:35:36.804Z,9.52
2022-11-07T12:38:11.602Z,9.63
2022-11-07T12:41:17.399Z,9.34
2022-11-07T12:44:14.928Z,9.37
2022-11-07T12:46:47.603Z,9.49
2022-11-07T12:49:40.800Z,9.50
2022-11-07T12:52:30.105Z,9.62
2022-11-07T12:55:02.154Z,9.51
2022-11-07T12:57:34.253Z,9.42
2022-11-07T13:00:15.569Z,9.50
2022-11-07T13:03:30.429Z,9.55
2022-11-07T13:06:22.086Z,9.53
2022-11-07T13:08:58.670Z,9.35
2022-11-07T13:12:09.740Z,9.58
2022-11-07T13:14:41.909Z,9.63
2022-11-07T13:17:08.403Z,9.54
2022-11-07T13:19:37.158Z,9.46
2022-11-07T13:22:06.589Z,9.40
2022-11-07T13:24:51.206Z,9.35
2022-11-07T13:27:24.813Z,9.36
2022-11-07T13:29:51.935Z,9.38
2022-11-07T13:32:18.507Z,9.45
2022-11-07T13:34:47.795Z,9.33
2022-11-07T13:37:40.221Z,9.30
2022-11-07T13:40:25.288Z,9.36
2022-11-07T13:43:13.699Z,9.43
2022-11-07T13:45:40.163Z,9.35
2022-11-07T13:48:16.333Z,9.51
2022-11-07T13:50:50.267Z,9.38
2022-11-07T13:53:19.943Z,9.32
2022-11-07T13:55:56.678Z,9.45
2022-11-07T13:58:25.225Z,9.33
2022-11-07T14:00:51.777Z,9.37
2022-11-07T14:03:28.219Z,9.41
2022-11-07T14:05:56.045Z,9.11
2022-11-07T14:11:23.115Z,9.59
2022-11-07T14:13:52.722Z,9.46
2022-11-07T14:16:23.248Z,9.49
2022-11-07T14:18:55.169Z,9.50
2022-11-07T14:21:28.525Z,9.36
2022-11-07T14:23:55.652Z,9.39
2022-11-07T14:26:32.938Z,9.46
2022-11-07T14:29:03.669Z,9.41
2022-11-07T14:31:34.029Z,9.41
2022-11-07T14:34:21.133Z,9.51
2022-11-07T14:36:48.707Z,9.50
2022-11-07T14:39:16.078Z,9.35
2022-11-07T14:41:44.601Z,9.23
2022-11-07T14:44:19.190Z,9.49
2022-11-07T14:46:48.673Z,9.35
2022-11-07T14:49:28.794Z,9.37
2022-11-07T14:51:56.363Z,9.59
2022-11-07T14:54:31.644Z,9.46
2022-11-07T14:56:59.256Z,9.35
2022-11-07T14:59:27.272Z,9.35
2022-11-07T15:01:57.644Z,9.25
2022-11-07T15:04:35.544Z,9.47
2022-11-07T15:07:26.294Z,9.48
2022-11-07T15:09:55.103Z,9.28
2022-11-07T15:12:27.025Z,9.32
2022-11-07T15:15:19.042Z,9.43
2022-11-07T15:17:52.458Z,9.60
2022-11-07T15:20:38.299Z,9.37
2022-11-07T15:23:27.164Z,9.39
2022-11-07T15:26:06.595Z,9.29
2022-11-07T15:28:42.171Z,9.34
2022-11-07T15:31:25.566Z,9.23
2022-11-07T15:33:54.542Z,9.46
2022-11-07T15:36:21.078Z,9.32
2022-11-07T15:38:49.095Z,9.16
2022-11-07T15:41:15.761Z,9.15
2022-11-07T15:43:42.359Z,9.14
2022-11-07T15:46:40.040Z,9.12
2022-11-07T15:49:07.581Z,9.10
2022-11-07T15:51:35.207Z,9.02
2022-11-07T15:54:02.727Z,9.15
2022-11-07T15:56:30.353Z,9.05
2022-11-07T15:58:59.495Z,8.96
2022-11-07T16:01:27.169Z,9.09
2022-11-07T16:03:57.093Z,8.97
2022-11-07T16:06:28.273Z,9.12
2022-11-07T16:08:56.468Z,9.02
2022-11-07T16:11:24.175Z,9.06
2022-11-07T16:13:59.273Z,9.08
2022-11-07T16:16:35.626Z,9.21
2022-11-07T16:19:03.423Z,9.13
2022-11-07T16:21:30.926Z,9.23
2022-11-07T16:23:57.766Z,9.16
2022-11-07T16:26:29.583Z,9.03
2022-11-07T16:28:56.156Z,9.08
2022-11-07T16:31:23.771Z,9.09
2022-11-07T16:33:53.582Z,9.10
2022-11-07T16:36:24.235Z,9.00
2022-11-07T16:38:51.351Z,8.83
2022-11-07T16:41:18.201Z,8.94
2022-11-07T16:43:46.334Z,8.80
2022-11-07T16:46:19.961Z,8.83
2022-11-07T16:48:52.911Z,8.81
2022-11-07T16:51:21.217Z,8.90
2022-11-07T16:53:48.490Z,8.76
2022-11-07T16:56:31.074Z,8.87
2022-11-07T16:58:58.312Z,8.87
2022-11-07T17:01:26.839Z,8.86
2022-11-07T17:03:56.381Z,8.76
2022-11-07T17:06:34.650Z,8.78
2022-11-07T17:09:08.938Z,8.67
2022-11-07T17:11:37.670Z,8.73
2022-11-07T17:14:04.325Z,8.68
2022-11-07T17:16:34.834Z,8.56
2022-11-07T17:19:01.796Z,8.53
2022-11-07T17:21:37.607Z,8.40
2022-11-07T17:24:04.857Z,8.39
2022-11-07T17:26:35.079Z,8.47
2022-11-07T17:29:04.788Z,8.42
2022-11-07T17:31:37.320Z,8.39
2022-11-07T17:34:03.930Z,8.63
2022-11-07T17:36:37.171Z,8.49
2022-11-07T17:39:11.667Z,8.57
2022-11-07T17:41:43.579Z,8.57
2022-11-07T17:44:11.090Z,8.69
2022-11-07T17:46:42.035Z,8.84
2022-11-07T17:49:14.852Z,8.69
2022-11-07T17:51:42.128Z,8.68
2022-11-07T17:54:16.759Z,8.62
2022-11-07T17:56:46.686Z,8.55
2022-11-07T17:59:26.781Z,8.66
2022-11-07T18:01:57.518Z,8.75
2022-11-07T18:04:38.955Z,8.75
2022-11-07T18:07:14.617Z,8.67
2022-11-07T18:09:41.661Z,8.70
2022-11-07T18:12:09.618Z,8.65
2022-11-07T18:17:23.064Z,8.62
2022-11-07T18:19:49.787Z,8.57
2022-11-07T18:22:17.595Z,8.65
2022-11-07T18:24:46.502Z,8.59
2022-11-07T18:27:16.322Z,8.53
2022-11-07T18:29:43.036Z,8.55
2022-11-07T18:32:09.660Z,8.48
2022-11-07T18:34:36.181Z,8.50
2022-11-07T18:37:02.601Z,8.53
2022-11-07T18:39:29.106Z,8.36
2022-11-07T18:41:55.700Z,8.22
2022-11-07T18:44:22.548Z,8.14
2022-11-07T18:46:49.067Z,8.10
2022-11-07T18:49:19.738Z,8.14
2022-11-07T18:51:46.425Z,8.06
2022-11-07T18:54:13.917Z,8.08
2022-11-07T18:56:41.317Z,8.06
2022-11-07T18:59:07.866Z,8.23
2022-11-07T19:01:37.641Z,8.20
2022-11-07T19:04:05.926Z,8.26
2022-11-07T19:06:36.372Z,8.39
2022-11-07T19:09:03.700Z,8.46
2022-11-07T19:11:37.281Z,8.50
2022-11-07T19:14:03.860Z,8.55
2022-11-07T19:16:30.751Z,8.50
2022-11-07T19:18:59.594Z,8.53
2022-11-07T19:21:26.386Z,8.54
2022-11-07T19:23:52.926Z,8.49
2022-11-07T19:26:19.846Z,8.33
2022-11-07T19:28:47.007Z,8.40
2022-11-07T19:31:14.188Z,8.38
2022-11-07T19:33:41.559Z,8.50
2022-11-07T19:36:14.126Z,8.53
2022-11-07T19:38:40.846Z,8.56
2022-11-07T19:41:11.631Z,8.52
2022-11-07T19:43:42.408Z,8.55
2022-11-07T19:46:14.839Z,8.56
2022-11-07T19:48:41.549Z,8.56
2022-11-07T19:51:09.918Z,8.49
2022-11-07T19:53:36.380Z,8.39
2022-11-07T19:56:08.599Z,8.43
2022-11-07T19:58:36.691Z,8.15
2022-11-07T20:01:12.949Z,8.08
2022-11-07T20:03:39.569Z,7.96
2022-11-07T20:06:10.305Z,7.87
2022-11-07T20:08:37.151Z,7.70
2022-11-07T20:11:03.864Z,7.63
2022-11-07T20:13:30.395Z,7.74
2022-11-07T20:15:57.841Z,7.67
2022-11-07T20:18:24.689Z,7.62
2022-11-07T20:20:51.189Z,7.74
2022-11-07T20:23:17.810Z,7.71
2022-11-07T20:25:44.512Z,7.74
2022-11-07T20:28:10.919Z,7.68
2022-11-07T20:30:41.123Z,7.63
2022-11-07T20:33:10.588Z,7.57
2022-11-07T20:35:37.195Z,7.63
2022-11-07T20:38:05.789Z,7.26
2022-11-07T20:40:32.526Z,7.18
2022-11-07T20:43:01.646Z,7.24
2022-11-07T20:45:28.396Z,7.18
2022-11-07T20:47:54.901Z,7.14
2022-11-07T20:50:21.366Z,7.08
2022-11-07T20:52:47.804Z,7.13
2022-11-07T20:55:14.294Z,7.23
2022-11-07T20:57:41.017Z,7.18
2022-11-07T21:00:08.181Z,7.21
2022-11-07T21:02:34.682Z,7.14
2022-11-07T21:05:20.257Z,7.02
2022-11-07T21:07:48.277Z,7.05
2022-11-07T21:10:14.883Z,6.98
2022-11-07T21:12:42.762Z,7.11
2022-11-07T21:15:10.147Z,7.12
2022-11-07T21:17:37.231Z,7.15
2022-11-07T21:20:05.315Z,7.17
2022-11-07T21:22:31.828Z,7.15
2022-11-07T21:24:58.535Z,7.12
2022-11-07T21:27:24.962Z,7.06
2022-11-07T21:29:51.432Z,6.97
2022-11-07T21:32:17.864Z,6.98
2022-11-07T21:34:46.200Z,6.87
2022-11-07T21:37:12.645Z,6.84
2022-11-07T21:39:39.112Z,6.82
2022-11-07T21:42:05.691Z,6.83
2022-11-07T21:44:32.336Z,6.77
2022-11-07T21:46:58.883Z,6.84
2022-11-07T21:49:25.287Z,6.81
2022-11-07T21:51:51.838Z,6.74
2022-11-07T21:54:18.356Z,6.75
2022-11-07T21:56:44.815Z,6.69
2022-11-07T21:59:12.171Z,6.69
2022-11-07T22:01:39.748Z,6.71
2022-11-07T22:04:09.997Z,6.70
2022-11-07T22:06:39.504Z,6.66
2022-11-07T22:09:07.273Z,6.52
2022-11-07T22:11:33.719Z,6.56
2022-11-07T22:14:00.248Z,6.55
2022-11-07T22:16:27.045Z,6.59
2022-11-07T22:18:53.512Z,6.54
2022-11-07T22:21:22.871Z,6.51
2022-11-07T22:23:50.841Z,6.48
2022-11-07T22:26:22.769Z,6.46
2022-11-07T22:28:49.486Z,6.27
2022-11-07T22:31:22.845Z,6.34
2022-11-07T22:33:50.341Z,6.22
2022-11-07T22:36:17.809Z,6.26
2022-11-07T22:38:44.566Z,6.27
2022-11-07T22:41:14.766Z,6.28
2022-11-07T22:43:41.477Z,6.18
2022-11-07T22:46:13.744Z,6.03
2022-11-07T22:48:41.247Z,5.96
2022-11-07T22:51:46.963Z,5.91
2022-11-07T22:54:13.816Z,5.86
2022-11-07T22:56:40.846Z,5.67
2022-11-07T22:59:07.509Z,5.63
